createdAt,value
2019-05-20T00:00:08.522Z,2.63
2019-05-20T00:02:37.244Z,2.40
2019-05-20T00:05:06.170Z,2.33
2019-05-20T00:07:34.971Z,2.30
2019-05-20T00:10:05.291Z,2.30
2019-05-20T00:12:34.007Z,2.00
2019-05-20T00:15:02.777Z,2.20
2019-05-20T00:17:31.585Z,2.20
2019-05-20T00:20:00.306Z,2.33
2019-05-20T00:22:29.155Z,2.50
2019-05-20T00:24:57.876Z,2.30
2019-05-20T00:27:26.592Z,2.40
2019-05-20T00:29:55.477Z,2.23
2019-05-20T00:32:38.791Z,2.00
2019-05-20T00:34:54.628Z,2.23
2019-05-20T00:37:23.522Z,2.13
2019-05-20T00:39:52.249Z,2.00
2019-05-20T00:42:20.992Z,2.30
2019-05-20T00:44:49.851Z,2.60
2019-05-20T00:47:18.593Z,2.30
2019-05-20T00:49:47.308Z,2.07
2019-05-20T00:52:16.180Z,2.37
2019-05-20T00:54:44.915Z,2.10
2019-05-20T00:57:13.628Z,2.40
2019-05-20T00:59:42.512Z,2.13
2019-05-20T01:02:11.228Z,2.70
2019-05-20T01:04:39.953Z,2.53
2019-05-20T01:07:08.934Z,2.87
2019-05-20T01:09:37.662Z,2.50
2019-05-20T01:12:06.384Z,2.40
2019-05-20T01:14:35.262Z,2.57
2019-05-20T01:17:03.953Z,2.77
2019-05-20T01:19:32.703Z,2.90
2019-05-20T01:22:01.498Z,2.60
2019-05-20T01:24:30.264Z,2.80
2019-05-20T01:26:58.966Z,2.93
2019-05-20T01:29:27.835Z,2.93
2019-05-20T01:31:56.565Z,2.87
2019-05-20T01:34:25.280Z,3.03
2019-05-20T01:36:54.134Z,3.50
2019-05-20T01:39:22.871Z,3.30
2019-05-20T01:41:51.579Z,3.50
2019-05-20T01:44:20.419Z,3.27
2019-05-20T01:46:49.137Z,3.37
2019-05-20T01:49:17.855Z,3.20
2019-05-20T01:51:46.721Z,3.40
2019-05-20T01:54:15.448Z,3.03
2019-05-20T01:56:44.219Z,3.10
2019-05-20T01:59:12.976Z,3.40
2019-05-20T02:01:41.705Z,3.17
2019-05-20T02:04:10.434Z,3.60
2019-05-20T02:06:39.186Z,3.20
2019-05-20T02:09:09.307Z,3.07
2019-05-20T02:11:38.059Z,3.00
2019-05-20T02:14:08.587Z,2.90
2019-05-20T02:16:37.350Z,3.30
2019-05-20T02:19:06.063Z,3.20
2019-05-20T02:21:35.041Z,3.43
2019-05-20T02:24:03.769Z,3.60
2019-05-20T02:26:32.494Z,3.00
2019-05-20T02:29:01.272Z,3.57
2019-05-20T02:31:29.991Z,3.30
2019-05-20T02:33:58.711Z,3.70
2019-05-20T02:36:27.623Z,3.70
2019-05-20T02:38:56.330Z,3.73
2019-05-20T02:41:25.049Z,3.50
2019-05-20T02:43:53.839Z,3.10
2019-05-20T02:46:22.557Z,3.53
2019-05-20T02:48:51.295Z,3.50
2019-05-20T02:51:21.631Z,3.80
2019-05-20T02:53:50.351Z,3.60
2019-05-20T02:56:19.143Z,3.47
2019-05-20T02:58:48.162Z,3.73
2019-05-20T03:01:16.893Z,3.30
2019-05-20T03:03:45.615Z,4.13
2019-05-20T03:06:14.480Z,3.40
2019-05-20T03:08:43.204Z,3.67
2019-05-20T03:11:11.920Z,4.07
2019-05-20T03:13:40.765Z,3.80
2019-05-20T03:16:09.481Z,3.57
2019-05-20T03:18:38.204Z,4.03
2019-05-20T03:21:07.052Z,3.83
2019-05-20T03:23:35.779Z,4.40
2019-05-20T03:26:04.502Z,3.80
2019-05-20T03:28:33.374Z,4.73
2019-05-20T03:31:02.108Z,4.20
2019-05-20T03:33:30.832Z,4.27
2019-05-20T03:35:59.674Z,4.60
2019-05-20T03:38:28.394Z,4.70
2019-05-20T03:40:57.123Z,4.37
2019-05-20T03:43:26.072Z,4.77
2019-05-20T03:45:54.810Z,4.37
2019-05-20T03:48:23.517Z,4.30
2019-05-20T03:50:52.466Z,4.00
2019-05-20T03:53:21.193Z,4.30
2019-05-20T03:55:49.909Z,4.83
2019-05-20T03:58:18.692Z,4.80
2019-05-20T04:00:48.324Z,5.13
2019-05-20T04:03:17.140Z,4.87
2019-05-20T04:05:46.104Z,4.93
2019-05-20T04:08:14.821Z,4.67
2019-05-20T04:10:43.562Z,4.77
2019-05-20T04:13:12.427Z,4.60
2019-05-20T04:15:41.152Z,4.83
2019-05-20T04:18:09.863Z,6.33
2019-05-20T04:20:38.767Z,5.40
2019-05-20T04:23:07.561Z,5.13
2019-05-20T04:25:36.286Z,5.47
2019-05-20T04:28:05.241Z,5.50
2019-05-20T04:30:33.965Z,5.60
2019-05-20T04:33:02.717Z,5.33
2019-05-20T04:35:32.061Z,5.37
2019-05-20T04:38:00.781Z,4.87
2019-05-20T04:40:29.503Z,5.47
2019-05-20T04:42:58.264Z,5.40
2019-05-20T04:45:26.975Z,5.23
2019-05-20T04:47:55.697Z,5.07
2019-05-20T04:50:24.641Z,5.10
2019-05-20T04:52:53.359Z,5.90
2019-05-20T04:55:22.086Z,4.70
2019-05-20T04:57:50.844Z,4.37
2019-05-20T05:00:31.400Z,5.07
2019-05-20T05:03:00.274Z,4.90
2019-05-20T05:05:37.111Z,4.50
2019-05-20T05:07:59.453Z,4.40
2019-05-20T05:10:28.240Z,4.60
2019-05-20T05:12:56.963Z,4.43
2019-05-20T05:15:25.684Z,4.30
2019-05-20T05:17:54.565Z,4.80
2019-05-20T05:20:23.281Z,4.07
2019-05-20T05:22:52.004Z,5.37
2019-05-20T05:25:20.790Z,6.30
2019-05-20T05:27:49.517Z,4.30
2019-05-20T05:30:18.690Z,7.60
2019-05-20T05:32:47.534Z,3.83
2019-05-20T05:35:17.551Z,3.70
2019-05-20T05:37:46.281Z,3.33
2019-05-20T05:40:17.737Z,5.27
2019-05-20T05:42:46.456Z,3.57
2019-05-20T05:45:15.888Z,4.03
2019-05-20T05:47:44.781Z,3.80
2019-05-20T05:50:13.703Z,3.63
2019-05-20T05:52:42.428Z,3.77
2019-05-20T05:55:11.478Z,4.30
2019-05-20T05:57:40.204Z,11.23
2019-05-20T06:00:10.226Z,3.97
2019-05-20T06:02:38.971Z,4.13
2019-05-20T06:05:07.734Z,4.43
2019-05-20T06:07:36.450Z,3.70
2019-05-20T06:10:09.513Z,4.30
2019-05-20T06:12:38.626Z,3.70
2019-05-20T06:15:12.031Z,4.20
2019-05-20T06:17:41.095Z,3.93
2019-05-20T06:20:10.212Z,4.40
2019-05-20T06:22:38.934Z,3.40
2019-05-20T06:25:08.200Z,4.73
2019-05-20T06:27:36.911Z,4.67
2019-05-20T06:30:11.100Z,3.93
2019-05-20T06:32:40.085Z,4.10
2019-05-20T06:35:09.760Z,9.60
2019-05-20T06:37:40.693Z,3.47
2019-05-20T06:40:09.745Z,4.00
2019-05-20T06:42:38.914Z,3.70
2019-05-20T06:45:09.127Z,4.20
2019-05-20T06:47:38.038Z,3.70
2019-05-20T06:50:08.654Z,6.40
2019-05-20T06:52:37.369Z,5.10
2019-05-20T06:55:09.786Z,4.97
2019-05-20T06:57:38.500Z,4.27
2019-05-20T07:00:08.637Z,8.10
2019-05-20T07:02:37.507Z,4.33
2019-05-20T07:05:08.427Z,3.57
2019-05-20T07:07:37.220Z,8.67
2019-05-20T07:10:08.413Z,4.13
2019-05-20T07:12:41.311Z,4.10
2019-05-20T07:15:08.394Z,5.10
2019-05-20T07:17:37.183Z,3.60
2019-05-20T07:20:07.004Z,4.77
2019-05-20T07:22:53.933Z,3.47
2019-05-20T07:25:08.341Z,3.10
2019-05-20T07:27:37.058Z,4.00
2019-05-20T07:30:07.178Z,3.70
2019-05-20T07:32:36.055Z,3.43
2019-05-20T07:35:06.651Z,2.97
2019-05-20T07:37:35.402Z,3.63
2019-05-20T07:40:05.455Z,3.40
2019-05-20T07:42:34.179Z,3.07
2019-05-20T07:45:03.018Z,2.83
2019-05-20T07:47:32.049Z,4.37
2019-05-20T07:50:00.873Z,4.33
2019-05-20T07:52:29.693Z,3.03
2019-05-20T07:54:59.431Z,6.57
2019-05-20T07:57:31.081Z,5.23
2019-05-20T07:59:59.891Z,5.03
2019-05-20T08:02:29.008Z,6.40
2019-05-20T08:04:57.773Z,3.50
2019-05-20T08:07:35.801Z,3.63
2019-05-20T08:09:57.088Z,4.07
2019-05-20T08:12:25.792Z,3.30
2019-05-20T08:14:54.515Z,3.67
2019-05-20T08:17:23.410Z,3.37
2019-05-20T08:19:52.117Z,3.30
2019-05-20T08:22:20.837Z,3.23
2019-05-20T08:24:49.694Z,3.47
2019-05-20T08:27:18.413Z,3.03
2019-05-20T08:29:47.146Z,6.93
2019-05-20T08:32:15.933Z,5.77
2019-05-20T08:34:44.645Z,3.23
2019-05-20T08:37:13.446Z,2.97
2019-05-20T08:39:42.284Z,2.73
2019-05-20T08:42:11.011Z,2.57
2019-05-20T08:44:40.704Z,2.50
2019-05-20T08:47:09.600Z,6.47
2019-05-20T08:49:38.617Z,4.80
2019-05-20T08:52:07.687Z,2.70
2019-05-20T08:54:40.135Z,2.87
2019-05-20T08:57:06.936Z,3.20
2019-05-20T08:59:35.688Z,2.80
2019-05-20T09:02:04.484Z,2.47
2019-05-20T09:04:33.198Z,2.33
2019-05-20T09:07:01.915Z,2.83
2019-05-20T09:09:30.800Z,2.23
2019-05-20T09:11:59.595Z,2.33
2019-05-20T09:14:28.341Z,2.10
2019-05-20T09:16:57.267Z,2.67
2019-05-20T09:19:25.989Z,2.40
2019-05-20T09:21:57.005Z,1.97
2019-05-20T09:24:25.860Z,2.00
2019-05-20T09:26:54.585Z,2.20
2019-05-20T09:29:23.304Z,1.87
2019-05-20T09:31:52.175Z,2.20
2019-05-20T09:34:21.125Z,2.17
2019-05-20T09:36:49.836Z,2.57
2019-05-20T09:39:18.641Z,2.20
2019-05-20T09:41:47.379Z,2.30
2019-05-20T09:44:16.096Z,2.90
2019-05-20T09:46:44.866Z,2.83
2019-05-20T09:49:13.594Z,3.57
2019-05-20T09:51:42.308Z,2.87
2019-05-20T09:54:11.176Z,4.53
2019-05-20T09:56:39.906Z,7.75
2019-05-20T09:59:08.634Z,3.05
2019-05-20T10:01:40.224Z,2.12
2019-05-20T10:04:08.210Z,2.37
2019-05-20T10:06:36.922Z,2.27
2019-05-20T10:09:07.089Z,2.05
2019-05-20T10:11:35.806Z,1.90
2019-05-20T10:14:04.661Z,1.70
2019-05-20T10:16:33.521Z,1.95
2019-05-20T10:19:02.240Z,1.70
2019-05-20T10:21:30.967Z,1.85
2019-05-20T10:23:59.736Z,1.80
2019-05-20T10:26:28.458Z,1.90
2019-05-20T10:28:59.048Z,2.25
2019-05-20T10:31:27.967Z,1.50
2019-05-20T10:33:56.676Z,5.05
2019-05-20T10:36:25.424Z,1.87
2019-05-20T10:38:58.909Z,3.42
2019-05-20T10:41:29.381Z,1.85
2019-05-20T10:43:56.570Z,2.12
2019-05-20T10:46:25.445Z,1.57
2019-05-20T10:48:54.168Z,2.00
2019-05-20T10:51:22.892Z,1.77
2019-05-20T10:53:51.883Z,2.53
2019-05-20T10:56:20.610Z,3.40
2019-05-20T10:58:50.811Z,2.93
2019-05-20T11:01:19.598Z,3.00
2019-05-20T11:03:51.531Z,2.97
2019-05-20T11:06:20.286Z,2.67
2019-05-20T11:08:49.233Z,9.53
2019-05-20T11:11:17.972Z,3.83
2019-05-20T11:13:46.697Z,1.80
2019-05-20T11:16:24.943Z,2.13
2019-05-20T11:18:53.660Z,2.17
2019-05-20T11:21:22.388Z,2.10
2019-05-20T11:23:54.544Z,2.20
2019-05-20T11:26:23.289Z,2.50
2019-05-20T11:28:52.038Z,2.30
2019-05-20T11:31:20.923Z,1.97
2019-05-20T11:33:49.635Z,2.23
2019-05-20T11:36:21.330Z,1.77
2019-05-20T11:38:50.096Z,2.47
2019-05-20T11:41:18.829Z,1.80
2019-05-20T11:43:47.584Z,2.23
2019-05-20T11:46:18.274Z,2.03
2019-05-20T11:48:46.945Z,7.30
2019-05-20T11:51:15.675Z,1.93
2019-05-20T11:53:44.528Z,2.77
2019-05-20T11:56:13.251Z,2.00
2019-05-20T11:58:41.971Z,2.47
2019-05-20T12:01:10.881Z,2.77
2019-05-20T12:03:39.607Z,2.30
2019-05-20T12:06:15.300Z,3.17
2019-05-20T12:08:44.209Z,1.90
2019-05-20T12:11:12.936Z,2.35
2019-05-20T12:13:41.673Z,2.58
2019-05-20T12:16:10.583Z,2.30
2019-05-20T12:18:39.304Z,4.70
2019-05-20T12:21:08.031Z,2.10
2019-05-20T12:23:36.876Z,1.92
2019-05-20T12:26:07.525Z,2.20
2019-05-20T12:28:37.658Z,2.00
2019-05-20T12:31:06.606Z,4.37
2019-05-20T12:33:35.371Z,1.92
2019-05-20T12:36:04.904Z,4.72
2019-05-20T12:38:33.789Z,2.00
2019-05-20T12:41:02.995Z,1.90
2019-05-20T12:43:31.717Z,1.95
2019-05-20T12:46:03.972Z,2.20
2019-05-20T12:48:35.732Z,2.33
2019-05-20T12:51:04.493Z,2.37
2019-05-20T12:53:33.390Z,2.37
2019-05-20T12:56:02.119Z,3.37
2019-05-20T12:58:30.850Z,2.25
2019-05-20T13:00:59.621Z,1.47
2019-05-20T13:03:28.343Z,7.73
2019-05-20T13:05:57.051Z,2.30
2019-05-20T13:08:25.915Z,1.67
2019-05-20T13:10:54.648Z,2.70
2019-05-20T13:13:23.376Z,2.10
2019-05-20T13:15:52.258Z,3.53
2019-05-20T13:18:21.063Z,2.30
2019-05-20T13:20:49.786Z,1.80
2019-05-20T13:23:18.579Z,2.23
2019-05-20T13:25:47.398Z,1.80
2019-05-20T13:28:16.104Z,1.93
2019-05-20T13:30:45.262Z,4.03
2019-05-20T13:33:13.993Z,2.50
2019-05-20T13:35:42.708Z,1.90
2019-05-20T13:38:11.495Z,1.93
2019-05-20T13:40:46.474Z,2.47
2019-05-20T13:43:10.710Z,1.83
2019-05-20T13:45:39.448Z,1.90
2019-05-20T13:48:08.191Z,1.57
2019-05-20T13:50:38.180Z,1.70
2019-05-20T13:53:07.054Z,2.23
2019-05-20T13:55:35.771Z,2.90
2019-05-20T13:58:04.509Z,1.70
2019-05-20T14:00:33.477Z,2.27
2019-05-20T14:03:02.199Z,3.33
2019-05-20T14:05:30.935Z,2.10
2019-05-20T14:07:59.814Z,1.80
2019-05-20T14:10:28.533Z,3.67
2019-05-20T14:12:59.040Z,1.60
2019-05-20T14:15:28.133Z,2.13
2019-05-20T14:17:57.030Z,2.17
2019-05-20T14:20:25.808Z,3.40
2019-05-20T14:22:54.735Z,2.30
2019-05-20T14:25:23.459Z,4.47
2019-05-20T14:27:52.190Z,2.33
2019-05-20T14:30:21.274Z,2.70
2019-05-20T14:32:50.032Z,3.77
2019-05-20T14:35:18.737Z,2.47
2019-05-20T14:37:47.607Z,2.10
2019-05-20T14:40:17.158Z,2.30
2019-05-20T14:42:45.956Z,2.97
2019-05-20T14:45:14.922Z,4.00
2019-05-20T14:47:43.676Z,3.83
2019-05-20T14:50:12.597Z,3.13
2019-05-20T14:52:41.444Z,4.40
2019-05-20T14:55:10.363Z,4.17
2019-05-20T14:57:39.103Z,4.73
2019-05-20T15:00:09.635Z,2.97
2019-05-20T15:02:38.354Z,3.40
2019-05-20T15:05:07.781Z,2.90
2019-05-20T15:07:38.014Z,2.77
2019-05-20T15:10:09.313Z,2.30
2019-05-20T15:12:38.033Z,2.50
2019-05-20T15:15:07.737Z,2.20
2019-05-20T15:17:36.522Z,1.77
2019-05-20T15:20:07.101Z,2.00
2019-05-20T15:22:35.951Z,3.80
2019-05-20T15:25:05.805Z,4.07
2019-05-20T15:27:34.539Z,2.30
2019-05-20T15:30:03.870Z,2.20
2019-05-20T15:32:32.599Z,1.93
2019-05-20T15:35:01.355Z,2.00
2019-05-20T15:37:30.184Z,1.70
2019-05-20T15:39:58.922Z,2.43
2019-05-20T15:42:27.941Z,1.73
2019-05-20T15:44:59.674Z,1.30
2019-05-20T15:47:28.559Z,1.77
2019-05-20T15:49:57.277Z,2.07
2019-05-20T15:52:26.083Z,2.17
2019-05-20T15:54:54.792Z,1.43
2019-05-20T15:57:23.513Z,1.50
2019-05-20T15:59:52.274Z,1.60
2019-05-20T16:02:21.785Z,1.93
2019-05-20T16:04:50.512Z,3.27
2019-05-20T16:07:19.385Z,4.60
2019-05-20T16:09:48.103Z,2.40
2019-05-20T16:12:16.841Z,2.00
2019-05-20T16:14:45.797Z,2.80
2019-05-20T16:17:14.538Z,2.70
2019-05-20T16:19:43.266Z,3.07
2019-05-20T16:22:12.063Z,1.90
2019-05-20T16:24:40.772Z,1.90
2019-05-20T16:27:09.570Z,2.30
2019-05-20T16:29:38.575Z,1.77
2019-05-20T16:32:07.301Z,1.63
2019-05-20T16:34:36.016Z,1.60
2019-05-20T16:37:11.037Z,1.40
2019-05-20T16:39:40.139Z,1.70
2019-05-20T16:42:08.853Z,1.60
2019-05-20T16:44:37.721Z,1.90
2019-05-20T16:47:06.442Z,1.83
2019-05-20T16:49:35.183Z,1.53
2019-05-20T16:52:04.386Z,1.63
2019-05-20T16:54:33.098Z,1.40
2019-05-20T16:57:01.831Z,2.03
2019-05-20T16:59:30.679Z,1.80
2019-05-20T17:01:59.395Z,2.13
2019-05-20T17:04:28.117Z,1.63
2019-05-20T17:06:57.018Z,1.70
2019-05-20T17:09:25.740Z,1.30
2019-05-20T17:11:54.464Z,1.40
2019-05-20T17:14:23.240Z,1.50
2019-05-20T17:16:51.963Z,1.43
2019-05-20T17:19:20.683Z,1.50
2019-05-20T17:21:49.448Z,1.40
2019-05-20T17:24:18.177Z,1.40
2019-05-20T17:26:46.900Z,1.57
2019-05-20T17:29:15.984Z,1.57
2019-05-20T17:31:44.698Z,1.47
2019-05-20T17:34:13.518Z,1.67
2019-05-20T17:36:42.291Z,1.43
2019-05-20T17:39:12.498Z,1.43
2019-05-20T17:41:41.275Z,2.23
2019-05-20T17:44:10.249Z,1.30
2019-05-20T17:46:39.083Z,1.87
2019-05-20T17:49:07.790Z,1.43
2019-05-20T17:51:36.681Z,1.63
2019-05-20T17:54:05.603Z,1.70
2019-05-20T17:56:34.317Z,2.00
2019-05-20T17:59:03.199Z,1.70
2019-05-20T18:01:31.926Z,1.57
2019-05-20T18:04:00.946Z,1.80
2019-05-20T18:06:29.904Z,1.60
2019-05-20T18:09:00.189Z,2.00
2019-05-20T18:11:28.911Z,1.70
2019-05-20T18:13:57.676Z,1.47
2019-05-20T18:16:26.500Z,1.70
2019-05-20T18:18:55.212Z,1.70
2019-05-20T18:21:23.982Z,2.27
2019-05-20T18:23:52.723Z,2.00
2019-05-20T18:26:21.440Z,2.30
2019-05-20T18:28:53.336Z,1.97
2019-05-20T18:31:31.909Z,2.00
2019-05-20T18:33:52.603Z,1.90
2019-05-20T18:36:21.954Z,1.97
2019-05-20T18:38:50.681Z,1.80
2019-05-20T18:41:19.406Z,2.27
2019-05-20T18:43:48.265Z,2.30
2019-05-20T18:46:16.993Z,2.40
2019-05-20T18:48:45.742Z,2.00
2019-05-20T18:51:14.477Z,2.00
2019-05-20T18:53:44.827Z,2.00
2019-05-20T18:56:13.502Z,2.43
2019-05-20T18:58:42.406Z,2.47
2019-05-20T19:01:11.187Z,2.50
2019-05-20T19:03:40.042Z,2.10
2019-05-20T19:06:08.853Z,2.43
2019-05-20T19:08:37.645Z,2.10
2019-05-20T19:11:06.381Z,2.27
2019-05-20T19:13:35.152Z,2.00
2019-05-20T19:16:04.075Z,2.30
2019-05-20T19:18:32.797Z,2.00
2019-05-20T19:21:02.020Z,2.10
2019-05-20T19:23:30.741Z,2.07
2019-05-20T19:25:59.457Z,1.93
2019-05-20T19:28:28.255Z,1.90
2019-05-20T19:30:56.983Z,2.33
2019-05-20T19:33:25.793Z,1.80
2019-05-20T19:35:54.750Z,1.70
2019-05-20T19:38:23.462Z,1.93
2019-05-20T19:40:52.180Z,1.90
2019-05-20T19:43:21.215Z,1.50
2019-05-20T19:45:49.984Z,2.00
2019-05-20T19:48:18.736Z,1.87
2019-05-20T19:50:47.609Z,1.70
2019-05-20T19:53:16.384Z,2.60
2019-05-20T19:55:45.118Z,3.87
2019-05-20T19:58:13.983Z,3.30
2019-05-20T20:00:42.697Z,1.87
2019-05-20T20:03:11.411Z,3.23
2019-05-20T20:05:40.280Z,2.30
2019-05-20T20:08:09.003Z,2.87
2019-05-20T20:10:37.721Z,3.10
2019-05-20T20:13:06.673Z,3.77
2019-05-20T20:15:35.396Z,3.40
2019-05-20T20:18:04.119Z,3.30
2019-05-20T20:20:32.883Z,3.13
2019-05-20T20:23:01.706Z,3.83
2019-05-20T20:25:30.423Z,3.50
2019-05-20T20:27:59.380Z,4.00
2019-05-20T20:30:28.103Z,4.07
2019-05-20T20:32:56.832Z,4.43
2019-05-20T20:35:37.592Z,4.27
2019-05-20T20:37:56.254Z,4.40
2019-05-20T20:40:24.999Z,4.20
2019-05-20T20:42:53.910Z,3.83
2019-05-20T20:45:22.632Z,4.00
2019-05-20T20:47:51.357Z,3.80
2019-05-20T20:50:20.316Z,3.33
2019-05-20T20:52:49.031Z,3.47
2019-05-20T20:55:17.751Z,3.70
2019-05-20T20:57:46.621Z,3.73
2019-05-20T21:00:16.179Z,3.93
2019-05-20T21:02:53.292Z,4.30
2019-05-20T21:05:15.694Z,4.40
2019-05-20T21:07:44.411Z,4.50
2019-05-20T21:10:13.151Z,4.30
2019-05-20T21:12:41.941Z,4.37
2019-05-20T21:15:11.167Z,4.60
2019-05-20T21:17:39.878Z,4.87
2019-05-20T21:20:08.938Z,5.07
2019-05-20T21:22:37.660Z,4.93
2019-05-20T21:25:07.693Z,4.93
2019-05-20T21:27:36.591Z,4.40
2019-05-20T21:30:07.118Z,5.00
2019-05-20T21:32:35.835Z,5.33
2019-05-20T21:35:05.108Z,5.30
2019-05-20T21:37:33.911Z,4.90
2019-05-20T21:40:02.650Z,5.00
2019-05-20T21:42:31.568Z,4.90
2019-05-20T21:45:00.318Z,5.03
2019-05-20T21:47:29.043Z,5.60
2019-05-20T21:49:58.073Z,4.70
2019-05-20T21:52:26.795Z,5.40
2019-05-20T21:54:55.514Z,4.57
2019-05-20T21:57:24.473Z,5.00
2019-05-20T21:59:53.214Z,4.87
2019-05-20T22:02:21.869Z,5.30
2019-05-20T22:04:50.591Z,5.07
2019-05-20T22:07:19.293Z,5.20
2019-05-20T22:09:47.962Z,5.00
2019-05-20T22:12:16.809Z,5.40
2019-05-20T22:14:45.493Z,5.50
2019-05-20T22:17:14.183Z,5.27
2019-05-20T22:19:43.059Z,5.27
2019-05-20T22:22:19.139Z,5.43
2019-05-20T22:24:47.959Z,5.33
2019-05-20T22:27:16.646Z,5.37
2019-05-20T22:29:45.422Z,4.80
2019-05-20T22:32:14.164Z,5.50
2019-05-20T22:34:53.281Z,5.30
2019-05-20T22:37:13.258Z,5.40
2019-05-20T22:39:42.032Z,5.53
2019-05-20T22:42:10.750Z,5.83
2019-05-20T22:44:39.395Z,5.33
2019-05-20T22:47:08.345Z,5.50
2019-05-20T22:49:37.020Z,5.70
2019-05-20T22:52:05.707Z,5.57
2019-05-20T22:54:34.523Z,5.63
2019-05-20T22:57:03.209Z,6.10
2019-05-20T22:59:31.884Z,5.77
2019-05-20T23:02:00.704Z,5.53
2019-05-20T23:04:29.381Z,5.47
2019-05-20T23:06:58.064Z,5.40
2019-05-20T23:09:27.037Z,4.87
2019-05-20T23:11:55.723Z,5.23
2019-05-20T23:14:25.112Z,5.07
2019-05-20T23:16:53.956Z,5.60
2019-05-20T23:19:22.635Z,5.03
2019-05-20T23:21:51.328Z,5.57
2019-05-20T23:24:20.147Z,5.33
2019-05-20T23:26:48.827Z,5.23
2019-05-20T23:29:17.505Z,5.70
2019-05-20T23:31:46.342Z,5.57
2019-05-20T23:34:15.026Z,6.20
2019-05-20T23:36:43.712Z,6.00
2019-05-20T23:39:12.627Z,4.73
2019-05-20T23:41:41.428Z,4.73
2019-05-20T23:44:10.108Z,5.33
2019-05-20T23:46:39.015Z,4.83
2019-05-20T23:49:07.754Z,4.70
2019-05-20T23:51:36.487Z,5.27
2019-05-20T23:54:05.267Z,4.87
2019-05-20T23:56:33.986Z,5.10
2019-05-20T23:59:02.707Z,5.00
